Danzig, North Dakota
Current Conditions -  °F | °C
As of 6:15 AM on Monday 24 Nov 2014 (Local Time) from K7L2 Reporting Station
Light Snow Light Snow  
Wind Chill: -9°   Ceiling: Unl
Heat Index: 10°   Visibility: 10mi
Dew Point:   Wind: 21mph
Humidity: 92%   Direction: 330°NNW
Pressure: 29.75"   Gusts: 25mph
Location:  46.0926°N, 99.1856°W
Report Text: K7L2 241215Z AUTO 33018G22KT 10SM -SN FEW001 M12/M13 A2975 RMK AO2
Loading
Personal Weather Stations






























Interactive Weather Map New forecast layout! Learn more

10-Day Weather Forecast

Advertisements
Track Severe Weather on mobile